Time;durP1;ratioP1;P1;durP2;ratioP2;P2;SDS_P1;SDS_P2;PMS_P1;PMS_P2;Temp;Humidity;BMP_temperature;BMP_pressure;BME280_temperature;BME280_humidity;BME280_pressure;Samples;Min_cycle;Max_cycle;Signal;HPM_P1;HPM_P2
2022/08/03 00:02:17;;;;;;;6.22;2.15;;;;;;;19.87;100.00;94705.38;5021819;28;20488;-88
2022/08/03 00:04:43;;;;;;;4.70;2.00;;;;;;;19.89;100.00;94703.16;5037983;28;20033;-89
2022/08/03 00:07:08;;;;;;;4.28;2.03;;;;;;;19.87;100.00;94699.25;5038887;28;20044;-89
2022/08/03 00:09:34;;;;;;;5.20;2.00;;;;;;;19.89;100.00;94703.16;5037562;28;20037;-88
2022/08/03 00:11:59;;;;;;;4.93;1.80;;;;;;;19.96;100.00;94699.28;5037682;28;20040;-89
2022/08/03 00:14:25;;;;;;;2.70;2.00;;;;;;;19.84;100.00;94698.03;5021216;28;20105;-89
2022/08/03 00:16:50;;;;;;;2.33;1.65;;;;;;;19.91;100.00;94697.53;5038053;28;20033;-88
2022/08/03 00:19:15;;;;;;;7.10;2.33;;;;;;;19.95;100.00;94703.03;5038655;28;20035;-89
2022/08/03 00:21:55;;;;;;;3.05;2.22;;;;;;;19.91;100.00;94697.53;5038564;28;20038;-89
2022/08/03 00:24:21;;;;;;;6.40;2.00;;;;;;;19.72;100.00;94700.56;5037313;28;20025;-89
2022/08/03 00:26:46;;;;;;;2.63;1.85;;;;;;;19.81;100.00;94695.22;5038516;28;20026;-89
2022/08/03 00:29:12;;;;;;;2.90;1.80;;;;;;;19.66;100.00;94699.97;5037243;28;20033;-88
2022/08/03 00:31:39;;;;;;;5.70;1.95;;;;;;;19.61;100.00;94694.81;5037250;28;20029;-88
2022/08/03 00:34:05;;;;;;;2.38;2.00;;;;;;;19.64;100.00;94702.16;5037145;28;20064;-89
2022/08/03 00:36:32;;;;;;;7.20;1.90;;;;;;;19.72;100.00;94695.25;5037751;28;20057;-89
2022/08/03 00:39:00;;;;;;;3.53;2.20;;;;;;;19.56;100.00;94697.63;5036921;28;20427;-89
2022/08/03 00:41:28;;;;;;;4.57;2.13;;;;;;;19.69;100.00;94696.66;5014077;28;20372;-89
2022/08/03 00:44:03;;;;;;;;;;;;;;;;;;;;;
2022/08/03 00:46:29;;;;;;;4.68;2.00;;;;;;;19.82;100.00;94694.13;5017050;28;20454;-89
2022/08/03 00:48:58;;;;;;;2.55;1.88;;;;;;;19.80;100.00;94699.78;5033788;28;20029;-89
2022/08/03 00:51:24;;;;;;;2.63;1.83;;;;;;;19.75;100.00;94699.94;5017171;28;20402;-89
2022/08/03 00:53:49;;;;;;;2.03;1.75;;;;;;;19.84;100.00;94699.91;5001187;28;20038;-89
2022/08/03 00:56:16;;;;;;;3.92;1.77;;;;;;;19.74;100.00;94693.84;5000139;28;20040;-89
2022/08/03 00:58:43;;;;;;;6.57;1.92;;;;;;;19.71;100.00;94701.66;5016901;28;20034;-89
2022/08/03 01:01:11;;;;;;;5.47;1.98;;;;;;;19.59;100.00;94697.03;5016905;28;20120;-89
2022/08/03 01:03:37;;;;;;;2.38;1.80;;;;;;;19.47;100.00;94697.66;5016973;28;20080;-89
2022/08/03 01:06:07;;;;;;;3.78;1.98;;;;;;;19.47;100.00;94697.66;5016869;28;20359;-89
2022/08/03 01:08:49;;;;;;;3.65;2.00;;;;;;;19.53;100.00;94696.41;5016839;28;20041;-89
2022/08/03 01:11:28;;;;;;;3.23;1.90;;;;;;;19.58;100.00;94685.59;5000830;28;20033;-89
2022/08/03 01:14:14;;;;;;;5.05;1.83;;;;;;;19.56;100.00;94693.13;5016310;28;20033;-89
2022/08/03 01:16:59;;;;;;;4.93;2.28;;;;;;;19.61;100.00;94686.84;5016990;28;20111;-89
2022/08/03 01:19:43;;;;;;;5.72;1.90;;;;;;;19.63;100.00;94682.00;5000823;28;20113;-89
2022/08/03 01:22:48;;;;;;;2.83;1.52;;;;;;;19.39;100.00;94683.28;5000660;28;20045;-89
2022/08/03 01:25:36;;;;;;;;;;;;;;;;;;;;;
2022/08/03 01:28:42;;;;;;;3.10;2.00;;;;;;;19.46;100.00;94678.28;5017475;28;20446;-89
2022/08/03 01:31:09;;;;;;;3.72;2.08;;;;;;;19.28;100.00;94677.53;5016013;28;20041;-89
2022/08/03 01:33:41;;;;;;;4.25;2.22;;;;;;;19.03;100.00;94685.19;5000398;28;20041;-89
2022/08/03 01:36:17;;;;;;;2.90;1.95;;;;;;;19.23;100.00;94679.56;5016732;28;20419;-89
2022/08/03 01:38:59;;;;;;;3.95;2.10;;;;;;;18.79;100.00;94675.81;4999956;28;20034;-89
2022/08/03 01:41:32;;;;;;;4.63;2.33;;;;;;;18.68;100.00;94681.72;5016331;28;20120;-89
2022/08/03 01:44:02;;;;;;;3.53;2.10;;;;;;;18.85;100.00;94678.31;5016239;28;20060;-89
2022/08/03 01:46:29;;;;;;;6.22;1.80;;;;;;;19.04;100.00;94672.72;5016203;28;20033;-89
2022/08/03 01:48:55;;;;;;;7.60;2.13;;;;;;;19.08;100.00;94678.97;5000310;28;20033;-89
2022/08/03 01:51:22;;;;;;;2.70;1.80;;;;;;;19.25;100.00;94674.72;5016129;28;20092;-89
2022/08/03 01:53:50;;;;;;;6.22;1.88;;;;;;;19.39;100.00;94672.66;4999654;28;20022;-89
2022/08/03 01:56:16;;;;;;;1.73;1.63;;;;;;;19.39;100.00;94675.31;5015847;28;20026;-89
2022/08/03 01:58:43;;;;;;;4.80;2.33;;;;;;;19.36;100.00;94674.06;5016429;28;20045;-89
2022/08/03 02:01:10;;;;;;;4.03;1.80;;;;;;;19.43;100.00;94678.13;5000152;28;20021;-89
2022/08/03 02:03:39;;;;;;;6.80;1.90;;;;;;;19.40;100.00;94673.47;5015904;28;20053;-89
2022/08/03 02:06:06;;;;;;;2.40;1.75;;;;;;;19.30;100.00;94670.03;5015843;28;20025;-89
2022/08/03 02:08:32;;;;;;;3.90;1.80;;;;;;;19.39;100.00;94671.91;5015894;28;20120;-89
2022/08/03 02:10:58;;;;;;;3.78;2.03;;;;;;;19.45;100.00;94670.63;5015856;28;20084;-89
2022/08/03 02:13:33;;;;;;;2.53;1.98;;;;;;;19.32;100.00;94667.84;4999596;28;20026;-89
2022/08/03 02:16:04;;;;;;;5.20;2.30;;;;;;;19.36;100.00;94668.75;5017063;28;20068;-89
2022/08/03 02:18:31;;;;;;;2.88;2.10;;;;;;;19.12;100.00;94673.81;4999752;28;20316;-89
2022/08/03 02:20:59;;;;;;;2.92;1.75;;;;;;;19.22;100.00;94673.47;5015850;28;20022;-89
2022/08/03 02:23:25;;;;;;;6.00;2.00;;;;;;;19.09;100.00;94669.91;5015747;28;20191;-89
2022/08/03 02:25:57;;;;;;;2.30;1.77;;;;;;;19.19;100.00;94668.78;5015831;28;20061;-89
2022/08/03 02:28:29;;;;;;;2.67;1.80;;;;;;;19.16;100.00;94674.72;5016114;28;20034;-89
2022/08/03 02:30:55;;;;;;;2.40;1.83;;;;;;;19.06;100.00;94671.28;4999507;28;20120;-89
2022/08/03 02:33:26;;;;;;;2.45;1.90;;;;;;;19.06;100.00;94673.94;4999534;28;20112;-88
2022/08/03 02:35:53;;;;;;;9.30;1.92;;;;;;;19.09;100.00;94669.13;5015772;28;20029;-89
2022/08/03 02:38:20;;;;;;;3.42;1.88;;;;;;;18.73;100.00;94674.41;5015629;28;20056;-89
2022/08/03 02:40:48;;;;;;;3.22;1.90;;;;;;;18.92;100.00;94675.97;5015619;28;20030;-89
2022/08/03 02:43:17;;;;;;;4.03;1.85;;;;;;;18.96;100.00;94670.81;5000032;28;20034;-89
2022/08/03 02:45:45;;;;;;;2.03;1.83;;;;;;;18.85;100.00;94665.81;5015613;28;20065;-89
2022/08/03 02:48:10;;;;;;;4.43;1.85;;;;;;;19.00;100.00;94667.25;5015582;28;20048;-89
2022/08/03 02:50:36;;;;;;;3.13;1.52;;;;;;;18.99;100.00;94662.22;5003875;28;20034;-89
2022/08/03 02:53:09;;;;;;;3.40;2.25;;;;;;;18.93;100.00;94653.63;5011140;28;20060;-89
2022/08/03 02:55:38;;;;;;;2.60;2.00;;;;;;;18.75;100.00;94656.28;5000659;28;20030;-90
2022/08/03 02:58:05;;;;;;;2.53;2.05;;;;;;;18.58;100.00;94667.69;5019850;28;20029;-89
2022/08/03 03:00:34;;;;;;;4.57;2.15;;;;;;;18.57;100.00;94660.78;5015091;28;20025;-89
2022/08/03 03:03:01;;;;;;;3.63;1.63;;;;;;;18.62;100.00;94658.00;5018377;28;20025;-89
2022/08/03 03:05:27;;;;;;;3.70;1.90;;;;;;;18.52;100.00;94663.59;5034900;28;20435;-89
2022/08/03 03:07:56;;;;;;;4.93;2.10;;;;;;;18.32;100.00;94664.97;5035152;28;20032;-89
2022/08/03 03:10:24;;;;;;;5.20;2.10;;;;;;;18.41;100.00;94673.75;5035023;28;20032;-89
2022/08/03 03:12:56;;;;;;;2.30;1.80;;;;;;;18.49;100.00;94664.22;5035060;28;20446;-90
2022/08/03 03:15:26;;;;;;;6.60;2.22;;;;;;;18.41;100.00;94663.13;5018795;28;20421;-90
2022/08/03 03:17:57;;;;;;;2.65;1.90;;;;;;;18.34;100.00;94663.59;5009671;28;20067;-89
2022/08/03 03:20:24;;;;;;;4.93;2.30;;;;;;;18.45;100.00;94668.59;5022962;28;20442;-90
2022/08/03 03:22:50;;;;;;;4.40;2.00;;;;;;;18.43;100.00;94655.66;5023054;28;20029;-90
2022/08/03 03:25:16;;;;;;;3.15;2.10;;;;;;;18.20;100.00;94655.75;5018528;28;20112;-90
2022/08/03 03:27:41;;;;;;;6.10;2.28;;;;;;;18.14;100.00;94658.84;5018384;28;20033;-89
2022/08/03 03:30:07;;;;;;;2.08;1.77;;;;;;;18.33;100.00;94658.59;5018400;28;20117;-90
2022/08/03 03:32:35;;;;;;;2.33;1.85;;;;;;;18.36;100.00;94655.31;5002123;28;20029;-89
2022/08/03 03:35:01;;;;;;;3.47;2.30;;;;;;;18.46;100.00;94652.38;5018610;28;20025;-89
2022/08/03 03:37:29;;;;;;;4.82;1.80;;;;;;;18.54;100.00;94663.31;5002351;28;20029;-89
2022/08/03 03:39:54;;;;;;;9.10;1.85;;;;;;;18.50;100.00;94655.19;5002296;28;20025;-89
2022/08/03 03:42:20;;;;;;;2.85;2.05;;;;;;;18.34;100.00;94663.59;5018747;28;20026;-89
2022/08/03 03:44:47;;;;;;;3.38;2.10;;;;;;;18.35;100.00;94664.34;5002298;28;20033;-90
2022/08/03 03:47:13;;;;;;;4.85;2.40;;;;;;;18.17;100.00;94663.56;5018227;28;20084;-90
2022/08/03 03:49:39;;;;;;;3.45;1.95;;;;;;;18.12;100.00;94666.31;5001841;28;20432;-89
2022/08/03 03:52:05;;;;;;;2.17;1.80;;;;;;;18.10;100.00;94658.69;5018380;28;20033;-90
2022/08/03 03:54:41;;;;;;;4.88;2.20;;;;;;;18.28;100.00;94662.16;5017839;28;20379;-89
2022/08/03 03:57:14;;;;;;;3.42;2.10;;;;;;;18.39;100.00;94664.53;5002290;28;20025;-90
2022/08/03 03:59:43;;;;;;;3.85;2.20;;;;;;;18.36;100.00;94664.06;5018129;28;20033;-89
2022/08/03 04:02:10;;;;;;;2.10;1.60;;;;;;;18.28;100.00;94658.72;5002171;28;20030;-89
2022/08/03 04:13:11;;;;;;;;;;;;;;;;;;;;;
2022/08/03 04:15:41;;;;;;;2.75;1.85;;;;;;;18.42;100.00;94670.00;5017599;28;20022;-90
2022/08/03 04:18:10;;;;;;;6.13;2.10;;;;;;;18.29;100.00;94668.25;5001318;28;20044;-90
2022/08/03 04:20:37;;;;;;;3.03;1.85;;;;;;;18.28;100.00;94670.09;5001398;28;20071;-86
2022/08/03 04:23:03;;;;;;;4.78;2.10;;;;;;;18.20;100.00;94669.00;5017229;28;20458;-87
2022/08/03 04:25:32;;;;;;;6.05;2.05;;;;;;;18.09;100.00;94667.75;5001590;28;20022;-87
2022/08/03 04:27:59;;;;;;;4.78;2.05;;;;;;;18.27;100.00;94673.09;5017370;28;20121;-87
2022/08/03 04:30:29;;;;;;;4.63;2.17;;;;;;;18.31;100.00;94669.50;5016340;28;20026;-87
2022/08/03 04:32:56;;;;;;;3.25;2.00;;;;;;;18.46;100.00;94670.16;5017762;28;20021;-87
2022/08/03 04:35:23;;;;;;;6.85;2.25;;;;;;;18.46;100.00;94670.16;5001116;28;20032;-86
2022/08/03 04:37:50;;;;;;;2.90;1.67;;;;;;;18.48;100.00;94671.41;5001608;28;20032;-87
2022/08/03 04:40:24;;;;;;;4.28;2.15;;;;;;;18.46;100.00;94676.25;5017273;28;20025;-86
2022/08/03 04:42:52;;;;;;;6.38;2.15;;;;;;;18.49;100.00;94675.63;5000784;28;20077;-86
2022/08/03 04:45:18;;;;;;;3.22;2.15;;;;;;;18.60;100.00;94673.47;5000921;28;20343;-86
2022/08/03 04:47:44;;;;;;;8.82;2.00;;;;;;;18.45;100.00;94679.97;5016970;28;20346;-86
2022/08/03 04:50:10;;;;;;;3.67;2.05;;;;;;;18.29;100.00;94678.88;5016877;28;20079;-88
2022/08/03 04:52:35;;;;;;;4.22;1.80;;;;;;;18.41;100.00;94679.03;5016742;28;20033;-87
2022/08/03 04:55:01;;;;;;;2.65;1.80;;;;;;;18.64;100.00;94678.91;5001213;28;20106;-87
2022/08/03 04:57:26;;;;;;;5.32;1.92;;;;;;;18.77;100.00;94675.34;5004607;28;20423;-88
2022/08/03 04:59:53;;;;;;;3.90;2.15;;;;;;;18.85;100.00;94671.13;5036752;28;20029;-87
2022/08/03 05:02:20;;;;;;;3.50;2.00;;;;;;;18.81;100.00;94675.50;5020196;28;20056;-88
2022/08/03 05:04:46;;;;;;;2.45;1.98;;;;;;;18.89;100.00;94679.25;5020263;28;20029;-88
2022/08/03 05:07:15;;;;;;;3.28;2.33;;;;;;;18.98;100.00;94677.38;5036565;28;20029;-87
2022/08/03 05:09:41;;;;;;;5.40;2.10;;;;;;;19.07;100.00;94680.06;5036559;28;20079;-88
2022/08/03 05:12:16;;;;;;;6.25;1.90;;;;;;;19.16;100.00;94685.34;5036705;28;20033;-87
2022/08/03 05:14:41;;;;;;;2.83;2.00;;;;;;;19.27;100.00;94686.59;5020210;28;20498;-88
2022/08/03 05:17:08;;;;;;;4.65;1.77;;;;;;;19.42;100.00;94687.97;5036242;28;20029;-87
2022/08/03 05:19:33;;;;;;;2.10;1.80;;;;;;;19.52;100.00;94688.75;5036423;28;20511;-87
2022/08/03 05:21:59;;;;;;;3.97;2.08;;;;;;;19.58;100.00;94687.47;5036284;28;20120;-88
2022/08/03 05:24:24;;;;;;;2.67;1.58;;;;;;;19.65;100.00;94695.75;5036000;28;20453;-87
2022/08/03 05:26:50;;;;;;;2.13;1.60;;;;;;;19.64;100.00;94694.19;5036337;28;20033;-88
2022/08/03 05:29:15;;;;;;;2.40;1.60;;;;;;;19.88;100.00;94693.63;5019887;28;20116;-87
2022/08/03 05:31:41;;;;;;;13.07;2.70;;;;;;;20.01;100.00;94699.88;5019706;28;20128;-87
2022/08/03 05:34:07;;;;;;;18.65;3.22;;;;;;;20.12;100.00;94699.50;5035919;28;20022;-88
2022/08/03 05:36:32;;;;;;;11.57;2.80;;;;;;;20.17;100.00;94704.66;5036113;28;20032;-87
2022/08/03 05:38:58;;;;;;;10.20;2.20;;;;;;;20.31;100.00;94702.56;5035970;28;20067;-88
2022/08/03 05:41:23;;;;;;;4.20;1.73;;;;;;;20.43;100.00;94707.19;5035601;28;20076;-88
2022/08/03 05:43:52;;;;;;;5.40;1.90;;;;;;;20.50;100.00;94712.00;5019612;28;20452;-88
2022/08/03 05:46:19;;;;;;;2.75;1.70;;;;;;;20.70;100.00;94707.03;5035972;28;20339;-88
2022/08/03 05:48:44;;;;;;;3.53;1.90;;;;;;;20.85;100.00;94705.72;5035925;28;20025;-88
2022/08/03 05:51:10;;;;;;;3.28;1.77;;;;;;;20.95;100.00;94705.34;5019610;28;20022;-88
2022/08/03 05:53:36;;;;;;;3.00;1.70;;;;;;;21.03;100.00;94701.81;5035818;28;20056;-88
2022/08/03 05:56:07;;;;;;;7.97;1.73;;;;;;;21.12;100.00;94706.28;5035798;28;20027;-88
2022/08/03 05:58:32;;;;;;;2.85;1.80;;;;;;;21.19;100.00;94702.00;5033425;28;20039;-87
2022/08/03 06:01:00;;;;;;;3.15;1.85;;;;;;;21.26;100.00;94703.34;5016112;28;20022;-88
2022/08/03 06:03:26;;;;;;;2.40;1.60;;;;;;;21.38;100.00;94705.28;4999141;28;20116;-88
2022/08/03 06:05:56;;;;;;;2.85;1.85;;;;;;;21.45;100.00;94713.53;5010988;28;20511;-88
2022/08/03 06:08:22;;;;;;;2.45;1.65;;;;;;;21.39;100.00;94706.84;5016800;28;20524;-87
2022/08/03 06:10:48;;;;;;;8.20;1.90;;;;;;;21.53;100.00;94707.34;4999870;28;20571;-86
2022/08/03 06:13:13;;;;;;;3.25;1.75;;;;;;;21.54;100.00;94708.91;4999413;28;20356;-86
2022/08/03 06:15:39;;;;;;;2.17;1.70;;;;;;;21.66;100.00;94705.50;5015651;28;20030;-86
2022/08/03 06:18:04;;;;;;;4.22;1.52;;;;;;;21.80;100.00;94713.19;5016040;28;20033;-87
2022/08/03 06:20:30;;;;;;;2.38;1.60;;;;;;;21.92;100.00;94704.44;5000030;28;20030;-87
2022/08/03 06:22:55;;;;;;;3.50;1.95;;;;;;;21.98;100.00;94713.78;5015962;28;20347;-86
2022/08/03 06:25:21;;;;;;;3.22;1.75;;;;;;;22.08;100.00;94719.78;4999780;28;20033;-86
2022/08/03 06:27:47;;;;;;;3.70;2.10;;;;;;;22.17;100.00;94717.81;5015787;28;20030;-87
2022/08/03 06:30:12;;;;;;;3.63;1.50;;;;;;;22.14;100.00;94721.91;5016853;28;20069;-87
2022/08/03 06:32:39;;;;;;;3.22;1.50;;;;;;;22.33;100.00;94719.81;5006059;28;20095;-86
2022/08/03 06:35:07;;;;;;;50.35;4.68;;;;;;;22.62;100.00;94726.81;5019020;28;20388;-86
2022/08/03 06:37:43;;;;;;;11.18;2.38;;;;;;;22.33;100.00;94719.81;5036584;28;20132;-87
2022/08/03 06:40:13;;;;;;;5.68;1.95;;;;;;;22.27;100.00;94724.59;5019308;28;20029;-86
2022/08/03 06:42:39;;;;;;;6.15;1.98;;;;;;;22.42;100.00;94731.94;5035016;28;20044;-87
2022/08/03 06:45:07;;;;;;;21.98;3.65;;;;;;;22.35;100.00;94729.03;5035374;28;20029;-87
2022/08/03 06:47:33;;;;;;;5.40;2.03;;;;;;;22.16;100.00;94737.56;5019105;28;20473;-87
2022/08/03 06:50:00;;;;;;;3.38;1.75;;;;;;;22.47;100.00;94736.28;5035300;28;20029;-88
2022/08/03 06:52:26;;;;;;;20.85;2.88;;;;;;;22.45;100.00;94738.47;5019710;28;20030;-88
2022/08/03 06:54:51;;;;;;;3.60;1.83;;;;;;;22.59;100.00;94746.19;5039148;28;20052;-87
2022/08/03 06:57:17;;;;;;;5.45;2.10;;;;;;;22.69;100.00;94742.28;5023088;28;20323;-88
2022/08/03 06:59:43;;;;;;;3.15;1.85;;;;;;;22.98;100.00;94748.47;5039437;28;20021;-88
2022/08/03 07:02:10;;;;;;;2.88;1.67;;;;;;;23.18;100.00;94746.75;5019553;28;20438;-88
2022/08/03 07:04:46;;;;;;;;;;;;;;;;;;;;;
2022/08/03 07:07:11;;;;;;;4.53;1.50;;;;;;;23.17;100.00;94747.88;5018918;28;20014;-87
2022/08/03 07:09:40;;;;;;;4.75;1.70;;;;;;;23.27;100.00;94752.78;5003208;28;20034;-88
2022/08/03 07:12:15;;;;;;;4.65;1.80;;;;;;;23.41;100.00;94751.63;5018958;28;20025;-88
2022/08/03 07:14:57;;;;;;;2.88;1.70;;;;;;;23.60;100.00;94744.84;5004252;28;20030;-88
2022/08/03 07:17:33;;;;;;;;;;;;;;;;;;;;;
2022/08/03 07:20:02;;;;;;;7.13;2.15;;;;;;;23.56;100.00;94756.22;5033504;28;20018;-87
2022/08/03 07:22:28;;;;;;;3.00;1.50;;;;;;;23.72;100.00;94758.16;5019394;28;20117;-85
2022/08/03 07:24:55;;;;;;;5.53;1.95;;;;;;;23.88;91.58;94754.72;5037484;28;20485;-86
2022/08/03 07:27:21;;;;;;;2.15;1.90;;;;;;;23.85;91.49;94756.19;5038515;28;20033;-86
2022/08/03 07:29:46;;;;;;;6.22;1.92;;;;;;;23.84;90.42;94752.75;5038430;28;20025;-86
2022/08/03 07:32:12;;;;;;;2.83;1.60;;;;;;;24.17;84.55;94758.91;5038199;28;20072;-86
2022/08/03 07:34:37;;;;;;;2.97;1.60;;;;;;;24.11;82.26;94761.09;5038039;28;20052;-85
2022/08/03 07:37:03;;;;;;;4.43;1.75;;;;;;;23.84;88.75;94762.66;5038647;28;20021;-85
2022/08/03 07:39:28;;;;;;;3.15;1.70;;;;;;;24.05;88.33;94762.47;5031181;28;20029;-86
2022/08/03 07:41:54;;;;;;;3.38;1.60;;;;;;;24.31;85.54;94763.84;5001829;28;20355;-85
2022/08/03 07:44:19;;;;;;;3.10;1.52;;;;;;;24.36;85.00;94763.59;5017917;28;20026;-85
2022/08/03 07:46:45;;;;;;;2.50;1.20;;;;;;;24.50;85.96;94762.38;5018104;28;20079;-85
2022/08/03 07:49:11;;;;;;;3.17;1.60;;;;;;;24.73;79.03;94764.44;5017955;28;20032;-85
2022/08/03 07:51:39;;;;;;;2.33;1.50;;;;;;;24.63;84.49;94765.75;5017836;28;20022;-86
2022/08/03 07:54:05;;;;;;;2.25;1.52;;;;;;;24.70;92.00;94757.84;5017816;28;20029;-86
2022/08/03 07:56:31;;;;;;;1.40;1.30;;;;;;;24.80;83.12;94754.69;5023058;28;20036;-85
2022/08/03 07:58:56;;;;;;;143.48;84.38;;;;;;;24.84;81.36;94758.19;5017936;28;20433;-85
2022/08/03 08:01:22;;;;;;;6.22;3.65;;;;;;;25.00;79.38;94760.06;5019101;28;20052;-85
2022/08/03 08:03:49;;;;;;;10.88;5.65;;;;;;;25.01;75.95;94766.97;5027728;28;20026;-85
2022/08/03 08:06:14;;;;;;;9.60;2.20;;;;;;;25.03;75.27;94763.94;5013321;28;20439;-85
2022/08/03 08:08:40;;;;;;;3.22;1.55;;;;;;;25.05;78.77;94759.81;5004427;28;20030;-85
2022/08/03 08:11:06;;;;;;;1.38;1.27;;;;;;;25.10;79.22;94764.09;5017553;28;20040;-85
2022/08/03 08:13:31;;;;;;;2.92;1.40;;;;;;;25.18;76.81;94768.47;5017594;28;20036;-86
2022/08/03 08:15:57;;;;;;;2.88;1.55;;;;;;;25.20;77.70;94763.53;5001851;28;20063;-86
2022/08/03 08:18:25;;;;;;;2.58;1.50;;;;;;;25.16;71.82;94762.69;5017542;28;20092;-86
2022/08/03 08:20:50;;;;;;;3.25;1.70;;;;;;;25.04;74.52;94760.94;5017453;28;20029;-88
2022/08/03 08:23:21;;;;;;;3.97;1.52;;;;;;;25.16;77.77;94765.38;5017762;28;20394;-87
2022/08/03 08:25:47;;;;;;;4.82;1.40;;;;;;;25.27;75.06;94770.94;5017560;28;20026;-87
2022/08/03 08:28:12;;;;;;;2.47;1.42;;;;;;;25.34;73.65;94765.75;5017656;28;20485;-87
2022/08/03 08:30:41;;;;;;;2.45;1.50;;;;;;;25.15;74.24;94758.47;5017701;28;20025;-88
2022/08/03 08:33:06;;;;;;;3.72;1.42;;;;;;;24.92;76.94;94759.13;5001681;28;20384;-88
2022/08/03 08:35:32;;;;;;;2.15;1.45;;;;;;;25.05;74.69;94759.00;5025039;28;20071;-87
2022/08/03 08:37:59;;;;;;;3.83;1.50;;;;;;;25.21;73.68;94764.34;5021520;28;20028;-87
2022/08/03 08:40:26;;;;;;;1.90;1.30;;;;;;;25.40;72.77;94766.25;5036861;28;20339;-86
2022/08/03 08:42:57;;;;;;;3.88;1.35;;;;;;;25.39;72.04;94765.47;5036725;28;20049;-87
2022/08/03 08:45:30;;;;;;;5.50;1.50;;;;;;;25.46;74.72;94767.50;5037127;28;20033;-88
2022/08/03 08:47:58;;;;;;;2.58;1.58;;;;;;;25.55;74.96;94770.00;5016205;28;20026;-89
2022/08/03 08:50:24;;;;;;;2.00;1.38;;;;;;;25.71;74.69;94769.94;5018017;28;20045;-87
2022/08/03 08:52:55;;;;;;;3.20;1.40;;;;;;;25.77;73.25;94763.13;5017386;28;20026;-87
2022/08/03 08:55:26;;;;;;;1.35;1.13;;;;;;;26.03;73.79;94764.34;5018318;28;20036;-86
2022/08/03 08:58:06;;;;;;;1.67;1.40;;;;;;;25.86;71.99;94773.63;5001471;28;20025;-88
2022/08/03 09:00:49;;;;;;;;;;;;;;;;;;;;;
2022/08/03 09:03:18;;;;;;;1.67;1.13;;;;;;;26.31;68.77;94759.84;5016804;28;20431;-86
2022/08/03 09:05:53;;;;;;;;;;;;;;;;;;;;;
2022/08/03 09:08:29;;;;;;;;;;;;;;;;;;;;;
2022/08/03 09:11:14;;;;;;;;;;;;;;;;;;;;;
2022/08/03 09:14:06;;;;;;;2.58;1.48;;;;;;;26.77;71.40;94765.16;5016818;28;20032;-86
2022/08/03 09:16:44;;;;;;;;;;;;;;;;;;;;;
2022/08/03 09:19:23;;;;;;;3.17;1.17;;;;;;;26.32;65.93;94766.75;5036889;28;20338;-87
2022/08/03 09:22:28;;;;;;;1.75;1.38;;;;;;;26.17;64.21;94766.50;5022463;28;20048;-86
2022/08/03 09:25:10;;;;;;;;;;;;;;;;;;;;;
2022/08/03 09:27:59;;;;;;;1.17;1.02;;;;;;;26.43;66.36;94758.88;5018220;28;20025;-87
2022/08/03 09:30:58;;;;;;;;;;;;;;;;;;;;;
2022/08/03 09:33:39;;;;;;;;;;;;;;;;;;;;;
2022/08/03 09:36:05;;;;;;;1.85;1.40;;;;;;;26.68;60.56;94757.38;5017381;28;20032;-86
2022/08/03 09:38:30;;;;;;;1.35;0.95;;;;;;;26.89;60.27;94753.44;5000149;28;20112;-86
2022/08/03 09:40:56;;;;;;;2.67;1.48;;;;;;;26.58;61.29;94752.59;4999537;28;20029;-85
2022/08/03 09:43:24;;;;;;;2.55;1.80;;;;;;;27.09;61.81;94750.63;5000074;28;20431;-87
2022/08/03 09:45:49;;;;;;;1.80;1.10;;;;;;;27.44;59.77;94757.59;5016603;28;20454;-86
2022/08/03 09:48:28;;;;;;;2.85;1.23;;;;;;;27.60;59.07;94754.72;5016007;28;20079;-87
2022/08/03 09:50:58;;;;;;;1.60;1.23;;;;;;;27.49;58.17;94753.81;5000202;28;20036;-86
2022/08/03 09:53:24;;;;;;;1.60;1.20;;;;;;;27.72;57.76;94751.00;5016125;28;20037;-87
2022/08/03 09:55:57;;;;;;;1.98;1.52;;;;;;;28.01;58.75;94756.69;4999743;28;20034;-86
2022/08/03 09:58:23;;;;;;;5.70;1.10;;;;;;;27.70;56.78;94752.50;5017095;28;20073;-86
2022/08/03 10:00:58;;;;;;;1.77;1.15;;;;;;;27.82;57.50;94746.09;4999673;28;20498;-87
2022/08/03 10:03:25;;;;;;;1.88;1.15;;;;;;;27.47;57.85;94743.41;5017102;28;20040;-87
2022/08/03 10:05:51;;;;;;;4.10;1.40;;;;;;;27.69;55.58;94740.19;5007465;28;20498;-86
2022/08/03 10:08:18;;;;;;;1.85;1.10;;;;;;;27.67;57.48;94737.88;5018872;28;20036;-87
2022/08/03 10:10:48;;;;;;;1.45;1.10;;;;;;;27.93;56.25;94733.50;4999778;28;20037;-86
2022/08/03 10:13:19;;;;;;;2.35;1.05;;;;;;;28.07;54.82;94736.31;5016087;28;20033;-86
2022/08/03 10:15:45;;;;;;;2.58;1.00;;;;;;;28.08;56.18;94735.19;5015926;28;20425;-86
2022/08/03 10:18:11;;;;;;;2.10;1.27;;;;;;;27.94;54.71;94733.16;5015856;28;20096;-86
2022/08/03 10:20:43;;;;;;;4.20;1.20;;;;;;;28.12;55.72;94735.22;5015579;28;20026;-86
2022/08/03 10:23:10;;;;;;;1.88;1.42;;;;;;;28.27;54.76;94729.97;5015151;28;20034;-87
2022/08/03 10:25:37;;;;;;;1.95;1.10;;;;;;;27.92;56.05;94727.38;5015425;28;20045;-87
2022/08/03 10:28:03;;;;;;;4.28;1.25;;;;;;;28.13;56.06;94728.69;5018627;28;20119;-86
2022/08/03 10:30:31;;;;;;;4.28;1.50;;;;;;;28.31;54.48;94731.56;5039674;28;20466;-86
2022/08/03 10:33:02;;;;;;;3.08;1.25;;;;;;;28.45;54.81;94730.13;5039116;28;20029;-88
2022/08/03 10:35:28;;;;;;;4.15;1.20;;;;;;;28.60;57.58;94730.97;5039454;28;20128;-88
2022/08/03 10:37:58;;;;;;;4.47;1.45;;;;;;;28.77;54.44;94729.56;5023515;28;20029;-87
2022/08/03 10:40:26;;;;;;;2.47;1.60;;;;;;;28.92;53.72;94717.72;5023137;28;20037;-87
2022/08/03 10:42:55;;;;;;;3.83;1.35;;;;;;;28.39;53.43;94718.91;5039036;28;20032;-87
2022/08/03 10:45:26;;;;;;;5.18;1.20;;;;;;;28.61;52.76;94719.81;5039380;28;20449;-87
2022/08/03 10:47:54;;;;;;;5.85;1.50;;;;;;;28.50;52.20;94713.59;5039333;28;20026;-87
2022/08/03 10:50:22;;;;;;;2.05;1.20;;;;;;;28.74;53.64;94706.81;5039174;28;20025;-89
2022/08/03 10:53:05;;;;;;;2.47;1.10;;;;;;;28.78;59.62;94712.22;5039143;28;20431;-87
2022/08/03 10:58:54;;;;;;;1.38;0.90;;;;;;;28.52;53.08;94711.28;5040639;28;20056;-87
2022/08/03 11:01:48;;;;;;;1.58;1.23;;;;;;;28.62;52.77;94707.13;5039272;28;20382;-86
2022/08/03 11:04:15;;;;;;;2.53;1.10;;;;;;;29.03;53.58;94698.13;5024558;28;20033;-86
2022/08/03 11:06:42;;;;;;;1.80;1.10;;;;;;;28.90;51.57;94701.16;5019115;28;20037;-88
2022/08/03 11:09:11;;;;;;;2.55;1.15;;;;;;;28.93;51.28;94700.38;5019307;28;20030;-87
2022/08/03 11:11:37;;;;;;;1.80;1.40;;;;;;;28.84;51.96;94699.97;5020091;28;20132;-86
2022/08/03 11:14:11;;;;;;;4.40;1.20;;;;;;;29.09;52.87;94701.22;5002696;28;20176;-86
2022/08/03 11:16:46;;;;;;;1.13;0.90;;;;;;;29.14;52.43;94703.56;5003592;28;20339;-86
2022/08/03 11:19:14;;;;;;;3.03;0.90;;;;;;;29.25;53.68;94714.38;5018816;28;20033;-87
2022/08/03 11:21:49;;;;;;;1.50;1.20;;;;;;;29.08;49.43;94700.44;5025898;28;20025;-86
2022/08/03 11:24:42;;;;;;;1.42;1.02;;;;;;;29.25;48.55;94698.19;5037889;28;20143;-87
2022/08/03 11:27:21;;;;;;;2.90;1.07;;;;;;;29.12;49.71;94693.13;5039438;28;20076;-86
2022/08/03 11:30:01;;;;;;;5.20;1.40;;;;;;;29.23;50.19;94687.81;5022615;28;20422;-87
2022/08/03 11:32:36;;;;;;;3.33;1.00;;;;;;;29.49;52.16;94688.69;5022870;28;20026;-87
2022/08/03 11:35:28;;;;;;;6.05;1.50;;;;;;;29.52;51.83;94693.31;5019745;28;20076;-87
2022/08/03 11:37:57;;;;;;;1.75;0.98;;;;;;;29.51;49.74;94693.69;5030774;28;20511;-87
2022/08/03 11:41:02;;;;;;;;;;;;;;;;;;;;;
2022/08/03 11:43:44;;;;;;;;;;;;;;;;;;;;;
2022/08/03 11:46:18;;;;;;;3.50;1.33;;;;;;;29.54;50.72;94687.50;5019329;28;20443;-88
2022/08/03 11:48:58;;;;;;;;;;;;;;;;;;;;;
2022/08/03 11:51:39;;;;;;;;;;;;;;;;;;;;;
2022/08/03 11:54:24;;;;;;;;;;;;;;;;;;;;;
2022/08/03 11:57:02;;;;;;;;;;;;;;;;;;;;;
2022/08/03 11:59:41;;;;;;;4.93;1.50;;;;;;;29.53;49.10;94677.88;5019300;28;20029;-88
2022/08/03 12:02:18;;;;;;;;;;;;;;;;;;;;;
2022/08/03 12:04:50;;;;;;;3.67;1.48;;;;;;;29.48;50.21;94674.41;5018109;28;20029;-87
2022/08/03 12:07:16;;;;;;;2.30;1.30;;;;;;;29.49;48.90;94675.94;5018386;28;20029;-87
2022/08/03 12:09:42;;;;;;;2.30;1.30;;;;;;;29.37;49.78;94678.22;5018244;28;20087;-87
2022/08/03 12:12:08;;;;;;;2.80;1.20;;;;;;;28.80;49.31;94677.56;5018226;28;20116;-86
2022/08/03 12:14:33;;;;;;;2.38;1.40;;;;;;;29.51;50.24;94666.69;5015188;28;20507;-86
2022/08/03 12:16:59;;;;;;;1.95;1.15;;;;;;;29.88;52.20;94673.69;5017416;28;20036;-86
2022/08/03 12:19:24;;;;;;;2.90;1.23;;;;;;;29.86;47.77;94676.75;5017840;28;20034;-86